Terminal Aerodrome Forecast
Issued by NWS Boston, MA

Home | Current Version | Previous Version | Text Only | Print | Product List | Glossary On
Versions: 1 2 3 4 5 6 7 8 9 10 11 12 13 14 15 16 17 18 19 20 21 22 23 24 25 26
000
FTUS41 KBOX 240822 AAA
TAFPVD
TAF AMD
KPVD 240822Z 2408/2506 33007KT P6SM SKC
     FM241800 27007KT P6SM FEW250
     FM242000 23008KT P6SM SCT250
     FM250300 22004KT P6SM FEW200=

USA.gov is the U.S. government's official web portal to all federal, state and local government web resources and services.